KACV/ACV METAR and TAF weather

Enter ICAO airport designator
Station Type Date Time Source
KACV METAR 2019/02/20 22:53 UTC NOAA

KACV 202253Z AUTO 30007KT 10SM SCT019 SCT042 BKN065 08/04 A2993 RMK AO2 RAE18 SLP143 P0000 T00830044


Station Type Date Time Source
KACV Decoded METAR 2019/02/20 22:53 UTC NOAA

ARCATA/EUREKA ARCATA AIRPORT, CA, United States (KACV) 40-59N 124-06W 67M
Feb 20, 2019 - 05:53 PM EST / 2019.02.20 2253 UTC
Wind: from the WNW (300 degrees) at 8 MPH (7 KT):0
Visibility: 10 mile(s):0
Sky conditions: mostly cloudy
Precipitation last hour: A trace
Temperature: 46.9 F (8.3 C)
Dew Point: 39.9 F (4.4 C)
Relative Humidity: 76%
Pressure (altimeter): 29.93 in. Hg (1013 hPa)
ob: KACV 202253Z AUTO 30007KT 10SM SCT019 SCT042 BKN065 08/04 A2993 RMK AO2 RAE18 SLP143 P0000 T00830044
cycle: 23

Station Type Date Time Source
KACV TAF 2019/02/20 18:51 UTC NOAA

TAF KACV 201749Z 2018/2118 35006KT 6SM -SHRA SCT025 BKN035 OVC100
TEMPO 2018/2021 4SM SHRA BKN025 OVC035
FM202100 33011KT P6SM -SHRA SCT025 BKN035 OVC120
FM210200 06006KT P6SM VCSH SCT030 BKN050 BKN120
FM210600 05005KT P6SM SCT030


Example: see airport list